Time;durP1;ratioP1;P1;durP2;ratioP2;P2;SDS_P1;SDS_P2;PMS_P1;PMS_P2;Temp;Humidity;BMP_temperature;BMP_pressure;BME280_temperature;BME280_humidity;BME280_pressure;Samples;Min_cycle;Max_cycle;Signal;HPM_P1;HPM_P2
2021/04/19 00:01:28;;;;;;;11.02;10.00;;;;;;;;;;5076454;28;20442;-65
2021/04/19 00:03:56;;;;;;;12.82;11.52;;;;;;;;;;5077085;28;20532;-65
2021/04/19 00:06:23;;;;;;;10.87;9.87;;;;;;;;;;5076348;28;20192;-64
2021/04/19 00:08:49;;;;;;;10.67;9.67;;;;;;;;;;5076315;28;20955;-64
2021/04/19 00:11:16;;;;;;;13.40;11.43;;;;;;;;;;5076455;28;20452;-64
2021/04/19 00:13:43;;;;;;;12.90;11.80;;;;;;;;;;5076328;28;20475;-64
2021/04/19 00:16:10;;;;;;;11.45;10.30;;;;;;;;;;5076451;28;20254;-64
2021/04/19 00:18:37;;;;;;;11.90;10.70;;;;;;;;;;5076160;28;20602;-64
2021/04/19 00:21:05;;;;;;;11.53;10.33;;;;;;;;;;5076139;28;20817;-64
2021/04/19 00:23:31;;;;;;;12.35;10.68;;;;;;;;;;5076255;28;20475;-64
2021/04/19 00:25:58;;;;;;;14.23;12.20;;;;;;;;;;5076009;28;20272;-65
2021/04/19 00:28:25;;;;;;;13.00;10.90;;;;;;;;;;5075990;28;20450;-65
2021/04/19 00:30:52;;;;;;;13.57;12.17;;;;;;;;;;5075587;28;20445;-65
2021/04/19 00:33:18;;;;;;;13.57;12.17;;;;;;;;;;5076044;28;20475;-65
2021/04/19 00:35:45;;;;;;;14.17;12.30;;;;;;;;;;5075668;28;20455;-65
2021/04/19 00:38:13;;;;;;;20.35;13.57;;;;;;;;;;5075830;28;20492;-65
2021/04/19 00:40:41;;;;;;;16.98;12.65;;;;;;;;;;5075456;28;20201;-65
2021/04/19 00:43:08;;;;;;;19.05;13.25;;;;;;;;;;5075349;28;20292;-65
2021/04/19 00:45:35;;;;;;;14.17;12.77;;;;;;;;;;5076077;28;20198;-65
2021/04/19 00:48:04;;;;;;;15.77;14.07;;;;;;;;;;5076154;28;20920;-64
2021/04/19 00:50:31;;;;;;;14.63;12.88;;;;;;;;;;5075850;28;20198;-65
2021/04/19 00:52:59;;;;;;;17.38;13.75;;;;;;;;;;5075597;28;20622;-64
2021/04/19 00:55:26;;;;;;;15.48;13.40;;;;;;;;;;5075028;28;20248;-64
2021/04/19 00:57:53;;;;;;;16.80;14.50;;;;;;;;;;5075460;28;20287;-64
2021/04/19 01:00:23;;;;;;;14.30;12.90;;;;;;;;;;5075455;28;20571;-64
2021/04/19 01:02:50;;;;;;;18.50;14.13;;;;;;;;;;5074971;28;20211;-64
2021/04/19 01:05:19;;;;;;;17.83;12.25;;;;;;;;;;5075062;28;20287;-64
2021/04/19 01:07:46;;;;;;;16.70;14.30;;;;;;;;;;5075228;28;20196;-64
2021/04/19 01:10:13;;;;;;;16.15;14.32;;;;;;;;;;5075204;28;20285;-65
2021/04/19 01:12:40;;;;;;;16.88;15.00;;;;;;;;;;5074766;28;20283;-65
2021/04/19 01:15:08;;;;;;;16.38;14.68;;;;;;;;;;5075109;28;20283;-65
2021/04/19 01:17:35;;;;;;;16.25;14.70;;;;;;;;;;5075057;28;20285;-65
2021/04/19 01:20:01;;;;;;;16.42;14.73;;;;;;;;;;5075028;28;20287;-65
2021/04/19 01:22:29;;;;;;;17.42;14.63;;;;;;;;;;5074960;28;20678;-65
2021/04/19 01:24:56;;;;;;;21.20;14.80;;;;;;;;;;5074909;28;20224;-64
2021/04/19 01:27:22;;;;;;;22.00;14.13;;;;;;;;;;5074980;28;20196;-65
2021/04/19 01:29:49;;;;;;;20.40;15.80;;;;;;;;;;5074973;28;20284;-65
2021/04/19 01:32:16;;;;;;;17.67;15.35;;;;;;;;;;5074469;28;20201;-65
2021/04/19 01:34:43;;;;;;;18.65;15.68;;;;;;;;;;5074665;28;20231;-64
2021/04/19 01:37:09;;;;;;;18.70;16.13;;;;;;;;;;5074980;28;20201;-64
2021/04/19 01:39:38;;;;;;;22.30;16.70;;;;;;;;;;5074287;28;20291;-64
2021/04/19 01:42:05;;;;;;;20.02;16.13;;;;;;;;;;5074530;28;20287;-64
2021/04/19 01:44:33;;;;;;;18.10;15.23;;;;;;;;;;5074472;28;20196;-65
2021/04/19 01:47:00;;;;;;;20.33;15.70;;;;;;;;;;5074605;28;20242;-65
2021/04/19 01:49:27;;;;;;;20.92;14.52;;;;;;;;;;5074520;28;20318;-65
2021/04/19 01:51:53;;;;;;;14.50;12.57;;;;;;;;;;5074337;28;20302;-64
2021/04/19 01:54:20;;;;;;;17.50;14.27;;;;;;;;;;5074813;28;20220;-65
2021/04/19 01:56:48;;;;;;;14.45;12.90;;;;;;;;;;5074214;28;20248;-65
2021/04/19 01:59:14;;;;;;;17.10;13.60;;;;;;;;;;5074242;28;20286;-65
2021/04/19 02:01:44;;;;;;;13.05;11.63;;;;;;;;;;5073964;28;20303;-64
2021/04/19 02:04:16;;;;;;;13.82;12.43;;;;;;;;;;5074198;28;20201;-65
2021/04/19 02:06:47;;;;;;;13.48;12.02;;;;;;;;;;5073589;28;20196;-65
2021/04/19 02:09:17;;;;;;;13.98;12.55;;;;;;;;;;5074220;28;20184;-65
2021/04/19 02:11:46;;;;;;;14.70;12.10;;;;;;;;;;5074016;28;20197;-65
2021/04/19 02:14:20;;;;;;;15.75;11.85;;;;;;;;;;5073871;28;20216;-65
2021/04/19 02:16:48;;;;;;;13.98;12.57;;;;;;;;;;5074182;28;20267;-65
2021/04/19 02:19:18;;;;;;;14.90;11.90;;;;;;;;;;5074232;28;20204;-65
2021/04/19 02:21:46;;;;;;;14.43;12.88;;;;;;;;;;5073791;28;20673;-66
2021/04/19 02:24:15;;;;;;;14.20;12.73;;;;;;;;;;5073624;28;20650;-65
2021/04/19 02:26:44;;;;;;;16.65;12.68;;;;;;;;;;5073773;28;20227;-66
2021/04/19 02:29:12;;;;;;;13.43;11.90;;;;;;;;;;5073658;28;20245;-65
2021/04/19 02:31:41;;;;;;;14.15;12.80;;;;;;;;;;5073662;28;20247;-65
2021/04/19 02:34:10;;;;;;;15.02;13.60;;;;;;;;;;5074137;28;20228;-65
2021/04/19 02:36:37;;;;;;;13.73;12.32;;;;;;;;;;5073387;28;20215;-65
2021/04/19 02:39:05;;;;;;;15.63;12.38;;;;;;;;;;5073442;28;20340;-65
2021/04/19 02:41:33;;;;;;;14.48;12.98;;;;;;;;;;5073518;28;20248;-65
2021/04/19 02:44:00;;;;;;;15.23;13.60;;;;;;;;;;5073628;28;20207;-65
2021/04/19 02:46:29;;;;;;;13.88;12.50;;;;;;;;;;5073290;28;20201;-65
2021/04/19 02:48:57;;;;;;;16.23;13.50;;;;;;;;;;5073465;28;20254;-64
2021/04/19 02:51:24;;;;;;;15.63;13.05;;;;;;;;;;5073899;28;20249;-65
2021/04/19 02:53:52;;;;;;;16.85;14.68;;;;;;;;;;5073490;28;20308;-65
2021/04/19 02:56:18;;;;;;;17.17;14.13;;;;;;;;;;5073817;28;20220;-65
2021/04/19 02:58:47;;;;;;;17.55;14.90;;;;;;;;;;5073767;28;20197;-65
2021/04/19 03:01:17;;;;;;;17.73;15.38;;;;;;;;;;5073485;28;20200;-65
2021/04/19 03:03:46;;;;;;;20.63;14.48;;;;;;;;;;5073180;28;20295;-65
2021/04/19 03:06:14;;;;;;;17.77;14.50;;;;;;;;;;5073406;28;20295;-65
2021/04/19 03:08:46;;;;;;;16.33;14.40;;;;;;;;;;5073040;28;20196;-65
2021/04/19 03:11:15;;;;;;;17.27;13.30;;;;;;;;;;5073155;28;20225;-64
2021/04/19 03:13:43;;;;;;;18.50;14.73;;;;;;;;;;5073002;28;20218;-65
2021/04/19 03:16:10;;;;;;;19.15;14.85;;;;;;;;;;5073046;28;20238;-64
2021/04/19 03:18:38;;;;;;;15.90;14.23;;;;;;;;;;5074525;28;20204;-65
2021/04/19 03:21:06;;;;;;;17.65;15.85;;;;;;;;;;5077400;28;20191;-64
2021/04/19 03:23:35;;;;;;;18.10;16.25;;;;;;;;;;5077030;28;20238;-64
2021/04/19 03:26:02;;;;;;;20.52;17.83;;;;;;;;;;5076956;28;20196;-65
2021/04/19 03:28:29;;;;;;;19.23;17.23;;;;;;;;;;5077699;28;20227;-64
2021/04/19 03:30:56;;;;;;;19.52;16.35;;;;;;;;;;5077116;28;20208;-64
2021/04/19 03:33:23;;;;;;;19.40;16.00;;;;;;;;;;5077194;28;20220;-64
2021/04/19 03:35:50;;;;;;;20.10;17.75;;;;;;;;;;5077056;28;20198;-64
2021/04/19 03:38:18;;;;;;;20.63;18.35;;;;;;;;;;5076709;28;20205;-64
2021/04/19 03:40:46;;;;;;;19.90;17.00;;;;;;;;;;5076967;28;20508;-64
2021/04/19 03:43:14;;;;;;;21.83;17.83;;;;;;;;;;5077332;28;20295;-64
2021/04/19 03:45:42;;;;;;;18.55;16.55;;;;;;;;;;5076832;28;20657;-64
2021/04/19 03:48:12;;;;;;;21.67;17.02;;;;;;;;;;5076632;28;20282;-64
2021/04/19 03:50:42;;;;;;;19.92;16.42;;;;;;;;;;5077183;28;20268;-65
2021/04/19 03:53:09;;;;;;;19.13;15.15;;;;;;;;;;5076686;28;20218;-64
2021/04/19 03:55:36;;;;;;;17.30;15.50;;;;;;;;;;5077119;28;20191;-64
2021/04/19 03:58:05;;;;;;;16.45;14.15;;;;;;;;;;5076506;28;20192;-64
2021/04/19 04:00:32;;;;;;;14.30;12.77;;;;;;;;;;5076190;28;20669;-64
2021/04/19 04:02:59;;;;;;;15.98;13.63;;;;;;;;;;5076126;28;20196;-64
2021/04/19 04:05:26;;;;;;;15.48;11.63;;;;;;;;;;5076556;28;20222;-64
2021/04/19 04:07:54;;;;;;;13.73;11.90;;;;;;;;;;5076434;28;20283;-65
2021/04/19 04:10:21;;;;;;;20.77;13.30;;;;;;;;;;5076980;28;20195;-65
2021/04/19 04:12:49;;;;;;;14.32;12.82;;;;;;;;;;5076834;28;20648;-65
2021/04/19 04:15:18;;;;;;;16.80;13.65;;;;;;;;;;5076343;28;20206;-64
2021/04/19 04:17:45;;;;;;;17.70;15.77;;;;;;;;;;5076528;28;20201;-65
2021/04/19 04:20:12;;;;;;;16.65;14.75;;;;;;;;;;5075845;28;20195;-63
2021/04/19 04:22:39;;;;;;;21.73;16.40;;;;;;;;;;5076411;28;20278;-64
2021/04/19 04:25:06;;;;;;;17.95;15.45;;;;;;;;;;5075741;28;20203;-64
2021/04/19 04:27:33;;;;;;;19.33;15.77;;;;;;;;;;5076589;28;20192;-64
2021/04/19 04:29:59;;;;;;;20.52;17.42;;;;;;;;;;5075499;28;20283;-64
2021/04/19 04:32:27;;;;;;;21.02;16.90;;;;;;;;;;5078201;28;20196;-64
2021/04/19 04:34:54;;;;;;;22.05;17.85;;;;;;;;;;5076394;28;20219;-64
2021/04/19 04:37:21;;;;;;;20.55;16.60;;;;;;;;;;5065922;28;20734;-65
2021/04/19 04:39:47;;;;;;;22.92;16.40;;;;;;;;;;5055483;28;20236;-65
2021/04/19 04:42:17;;;;;;;21.00;17.05;;;;;;;;;;5055493;28;20726;-64
2021/04/19 04:44:46;;;;;;;20.83;16.92;;;;;;;;;;5055838;28;20195;-65
2021/04/19 04:47:17;;;;;;;22.02;16.17;;;;;;;;;;5055091;28;20665;-64
2021/04/19 04:49:49;;;;;;;17.23;14.95;;;;;;;;;;5055461;28;20328;-64
2021/04/19 04:52:17;;;;;;;19.40;15.10;;;;;;;;;;5055383;28;20188;-64
2021/04/19 04:54:45;;;;;;;23.90;13.88;;;;;;;;;;5055498;28;20225;-64
2021/04/19 04:57:13;;;;;;;20.02;14.18;;;;;;;;;;5054655;28;20200;-64
2021/04/19 04:59:40;;;;;;;14.50;13.07;;;;;;;;;;5055388;28;20197;-64
2021/04/19 05:02:07;;;;;;;11.93;10.68;;;;;;;;;;5054892;28;20288;-64
2021/04/19 05:04:34;;;;;;;13.35;11.15;;;;;;;;;;5054592;28;20200;-64
2021/04/19 05:07:02;;;;;;;13.68;12.05;;;;;;;;;;5055092;28;20710;-64
2021/04/19 05:09:29;;;;;;;11.60;10.50;;;;;;;;;;5054829;28;20205;-64
2021/04/19 05:11:56;;;;;;;12.52;10.38;;;;;;;;;;5054813;28;20224;-64
2021/04/19 05:14:26;;;;;;;15.70;10.82;;;;;;;;;;5055296;28;20222;-65
2021/04/19 05:16:52;;;;;;;11.30;10.20;;;;;;;;;;5054751;28;20200;-65
2021/04/19 05:19:19;;;;;;;13.80;10.95;;;;;;;;;;5054942;28;20193;-64
2021/04/19 05:21:46;;;;;;;12.45;10.93;;;;;;;;;;5054925;28;20204;-65
2021/04/19 05:24:13;;;;;;;13.65;11.40;;;;;;;;;;5054622;28;20667;-65
2021/04/19 05:26:40;;;;;;;12.82;11.38;;;;;;;;;;5054731;28;20204;-65
2021/04/19 05:29:06;;;;;;;13.30;11.52;;;;;;;;;;5054731;28;20200;-65
2021/04/19 05:31:33;;;;;;;13.63;11.77;;;;;;;;;;5054729;28;20208;-65
2021/04/19 05:34:00;;;;;;;13.45;11.57;;;;;;;;;;5054649;28;20224;-65
2021/04/19 05:36:27;;;;;;;13.52;12.00;;;;;;;;;;5054433;28;20579;-65
2021/04/19 05:38:54;;;;;;;13.25;11.93;;;;;;;;;;5054551;28;20193;-65
2021/04/19 05:41:22;;;;;;;14.88;12.18;;;;;;;;;;5053693;28;20286;-65
2021/04/19 05:43:49;;;;;;;14.38;11.85;;;;;;;;;;5052639;28;20287;-66
2021/04/19 05:46:17;;;;;;;17.90;13.68;;;;;;;;;;5054233;28;20191;-69
2021/04/19 05:48:44;;;;;;;15.82;13.30;;;;;;;;;;5054140;28;20220;-69
2021/04/19 05:51:13;;;;;;;13.73;12.32;;;;;;;;;;5054422;28;20197;-66
2021/04/19 05:53:40;;;;;;;15.35;13.40;;;;;;;;;;5053841;28;20690;-66
2021/04/19 05:56:14;;;;;;;16.27;12.65;;;;;;;;;;5054285;28;20191;-67
2021/04/19 05:58:47;;;;;;;15.80;12.15;;;;;;;;;;5054719;28;20271;-68
2021/04/19 06:01:17;;;;;;;12.38;11.07;;;;;;;;;;5054594;28;20188;-67
2021/04/19 06:03:46;;;;;;;13.20;11.48;;;;;;;;;;5054115;28;20203;-67
2021/04/19 06:06:16;;;;;;;13.60;10.70;;;;;;;;;;5053959;28;20659;-67
2021/04/19 06:08:44;;;;;;;12.60;11.30;;;;;;;;;;5054012;28;20196;-67
2021/04/19 06:11:17;;;;;;;16.95;12.38;;;;;;;;;;5053925;28;20201;-67
2021/04/19 06:13:47;;;;;;;16.42;12.30;;;;;;;;;;5053850;28;20690;-67
2021/04/19 06:16:14;;;;;;;11.80;9.25;;;;;;;;;;5054963;28;20258;-67
2021/04/19 06:18:43;;;;;;;13.93;11.60;;;;;;;;;;5053902;28;20283;-67
2021/04/19 06:21:10;;;;;;;14.02;11.32;;;;;;;;;;5053448;28;20287;-66
2021/04/19 06:23:38;;;;;;;12.80;11.50;;;;;;;;;;5054031;28;20293;-66
2021/04/19 06:26:07;;;;;;;49.80;27.58;;;;;;;;;;5053800;28;20196;-67
2021/04/19 06:28:33;;;;;;;15.23;12.25;;;;;;;;;;5054241;28;20581;-66
2021/04/19 06:31:01;;;;;;;12.38;11.07;;;;;;;;;;5053412;28;20714;-66
2021/04/19 06:33:30;;;;;;;13.40;11.98;;;;;;;;;;5053609;28;20223;-66
2021/04/19 06:35:56;;;;;;;13.13;11.10;;;;;;;;;;5053290;28;20682;-67
2021/04/19 06:38:24;;;;;;;13.50;12.10;;;;;;;;;;5053324;28;20199;-66
2021/04/19 06:40:51;;;;;;;14.73;11.50;;;;;;;;;;5053325;28;20205;-66
2021/04/19 06:43:17;;;;;;;13.75;11.60;;;;;;;;;;5053284;28;20205;-66
2021/04/19 06:45:44;;;;;;;12.77;11.43;;;;;;;;;;5053587;28;20204;-66
2021/04/19 06:48:13;;;;;;;13.63;11.73;;;;;;;;;;5053221;28;20202;-66
2021/04/19 06:50:40;;;;;;;16.02;13.23;;;;;;;;;;5053042;28;20188;-67
2021/04/19 06:53:07;;;;;;;13.27;11.70;;;;;;;;;;5052485;28;20677;-66
2021/04/19 06:55:37;;;;;;;13.80;12.18;;;;;;;;;;5053357;28;20462;-67
2021/04/19 06:58:04;;;;;;;18.23;14.30;;;;;;;;;;5053536;28;20533;-66
2021/04/19 07:00:31;;;;;;;15.05;13.43;;;;;;;;;;5053185;28;20205;-67
2021/04/19 07:02:59;;;;;;;13.40;12.00;;;;;;;;;;5053314;28;20280;-66
2021/04/19 07:05:27;;;;;;;16.88;14.88;;;;;;;;;;5053176;28;20212;-66
2021/04/19 07:07:58;;;;;;;17.55;15.07;;;;;;;;;;5052884;28;20288;-66
2021/04/19 07:10:25;;;;;;;16.98;15.18;;;;;;;;;;5053247;28;20547;-66
2021/04/19 07:12:53;;;;;;;23.15;19.10;;;;;;;;;;5053739;28;20709;-67
2021/04/19 07:15:21;;;;;;;19.77;16.85;;;;;;;;;;5053009;28;20224;-66
2021/04/19 07:17:49;;;;;;;21.83;16.88;;;;;;;;;;5052922;28;20685;-66
2021/04/19 07:20:16;;;;;;;22.60;17.58;;;;;;;;;;5052325;28;20204;-66
2021/04/19 07:22:44;;;;;;;23.45;18.23;;;;;;;;;;5052518;28;20282;-66
2021/04/19 07:25:11;;;;;;;19.73;15.98;;;;;;;;;;5052862;28;20209;-68
2021/04/19 07:27:39;;;;;;;19.10;15.52;;;;;;;;;;5052602;28;20681;-67
2021/04/19 07:30:07;;;;;;;20.80;16.27;;;;;;;;;;5052443;28;20197;-67
2021/04/19 07:32:34;;;;;;;20.20;18.00;;;;;;;;;;5052825;28;20194;-67
2021/04/19 07:35:01;;;;;;;24.25;18.40;;;;;;;;;;5052538;28;20263;-67
2021/04/19 07:37:28;;;;;;;21.45;18.42;;;;;;;;;;5052495;28;20201;-67
2021/04/19 07:39:57;;;;;;;27.40;19.17;;;;;;;;;;5052894;28;20193;-67
2021/04/19 07:42:23;;;;;;;25.27;19.10;;;;;;;;;;5052967;28;20512;-67
2021/04/19 07:44:51;;;;;;;22.02;18.15;;;;;;;;;;5052465;28;20201;-67
2021/04/19 07:47:22;;;;;;;22.80;18.77;;;;;;;;;;5052735;28;20745;-68
2021/04/19 07:49:56;;;;;;;26.23;19.77;;;;;;;;;;5052911;28;20828;-67
2021/04/19 07:52:22;;;;;;;28.15;21.45;;;;;;;;;;5052481;28;20590;-67
2021/04/19 07:55:02;;;;;;;27.90;21.07;;;;;;;;;;5053120;28;20571;-68
2021/04/19 07:57:29;;;;;;;29.27;23.15;;;;;;;;;;5052841;28;20432;-67
2021/04/19 07:59:56;;;;;;;43.93;21.40;;;;;;;;;;5052848;28;20201;-67
2021/04/19 08:02:23;;;;;;;27.30;19.07;;;;;;;;;;5052435;28;20448;-67
2021/04/19 08:04:50;;;;;;;26.53;19.50;;;;;;;;;;5052404;28;20441;-67
2021/04/19 08:07:18;;;;;;;25.57;20.07;;;;;;;;;;5056417;28;20533;-67
2021/04/19 08:09:53;;;;;;;24.50;19.37;;;;;;;;;;5056360;28;20577;-67
2021/04/19 08:12:31;;;;;;;22.40;18.80;;;;;;;;;;5057013;28;20540;-67
2021/04/19 08:14:58;;;;;;;27.60;21.30;;;;;;;;;;5055964;28;21078;-67
2021/04/19 08:17:28;;;;;;;25.83;20.27;;;;;;;;;;5056247;28;20535;-67
2021/04/19 08:19:55;;;;;;;24.67;20.57;;;;;;;;;;5056670;28;20529;-68
2021/04/19 08:22:23;;;;;;;28.93;21.37;;;;;;;;;;5056103;28;20528;-67
2021/04/19 08:24:50;;;;;;;25.20;19.83;;;;;;;;;;5056212;28;20456;-67
2021/04/19 08:27:21;;;;;;;22.60;18.10;;;;;;;;;;5056055;28;20540;-67
2021/04/19 08:29:49;;;;;;;25.73;20.43;;;;;;;;;;5055932;28;20437;-67
2021/04/19 08:32:16;;;;;;;25.13;19.97;;;;;;;;;;5055869;28;20453;-68
2021/04/19 08:34:43;;;;;;;24.93;20.33;;;;;;;;;;5055470;28;20554;-67
2021/04/19 08:37:11;;;;;;;25.13;19.50;;;;;;;;;;5055502;28;20475;-68
2021/04/19 08:39:39;;;;;;;25.03;19.67;;;;;;;;;;5055460;28;20442;-67
2021/04/19 08:42:06;;;;;;;30.90;21.93;;;;;;;;;;5055475;28;20489;-67
2021/04/19 08:44:35;;;;;;;25.87;19.90;;;;;;;;;;5055388;28;20439;-67
2021/04/19 08:47:03;;;;;;;27.03;21.47;;;;;;;;;;5055300;28;21006;-67
2021/04/19 08:49:30;;;;;;;27.73;20.37;;;;;;;;;;5056252;28;20511;-67
2021/04/19 08:51:57;;;;;;;36.20;26.80;;;;;;;;;;5055448;28;20807;-67
2021/04/19 08:54:24;;;;;;;27.53;20.87;;;;;;;;;;5055078;28;20469;-68
2021/04/19 08:56:51;;;;;;;31.10;23.40;;;;;;;;;;5055104;28;21007;-68
2021/04/19 08:59:19;;;;;;;31.57;24.30;;;;;;;;;;5055580;28;20537;-67
2021/04/19 09:01:47;;;;;;;33.40;23.23;;;;;;;;;;5055091;28;20994;-67
2021/04/19 09:04:13;;;;;;;34.27;23.40;;;;;;;;;;5055300;28;20445;-69
2021/04/19 09:06:44;;;;;;;34.07;24.77;;;;;;;;;;5055323;28;20437;-68
2021/04/19 09:09:14;;;;;;;27.97;22.27;;;;;;;;;;5055746;28;20441;-67
2021/04/19 09:11:41;;;;;;;29.53;23.67;;;;;;;;;;5055016;28;20452;-68
2021/04/19 09:14:09;;;;;;;32.43;23.97;;;;;;;;;;5055407;28;20564;-68
2021/04/19 09:16:37;;;;;;;28.97;22.17;;;;;;;;;;5054360;28;20445;-68
2021/04/19 09:19:06;;;;;;;28.60;20.90;;;;;;;;;;5054735;28;20524;-68
2021/04/19 09:21:33;;;;;;;27.20;20.90;;;;;;;;;;5054995;28;20842;-68
2021/04/19 09:24:00;;;;;;;27.20;21.67;;;;;;;;;;5055488;28;20476;-67
2021/04/19 09:26:41;;;;;;;28.50;21.23;;;;;;;;;;5055091;28;20468;-67
2021/04/19 09:29:08;;;;;;;28.37;22.00;;;;;;;;;;5053641;28;20990;-68
2021/04/19 09:31:59;;;;;;;31.37;23.27;;;;;;;;;;5055067;28;20447;-68
2021/04/19 09:34:40;;;;;;;31.57;23.60;;;;;;;;;;5044157;28;20481;-68
2021/04/19 09:37:07;;;;;;;31.00;22.67;;;;;;;;;;5054896;28;20440;-67
2021/04/19 09:39:43;;;;;;;28.63;20.90;;;;;;;;;;5055093;28;20448;-68
2021/04/19 09:42:10;;;;;;;27.60;20.43;;;;;;;;;;5056702;28;20531;-68
2021/04/19 09:44:48;;;;;;;31.60;22.60;;;;;;;;;;5056173;28;20492;-68
2021/04/19 09:47:30;;;;;;;32.03;22.43;;;;;;;;;;5056093;28;20472;-68
2021/04/19 09:49:59;;;;;;;30.83;24.03;;;;;;;;;;5054845;28;20515;-68
2021/04/19 09:52:26;;;;;;;35.17;23.00;;;;;;;;;;5054647;28;20879;-67
2021/04/19 09:54:53;;;;;;;33.03;22.30;;;;;;;;;;5054843;28;20563;-68
2021/04/19 09:57:20;;;;;;;26.33;19.60;;;;;;;;;;5054832;28;20449;-68
2021/04/19 09:59:52;;;;;;;24.50;19.20;;;;;;;;;;5054188;28;20548;-69
2021/04/19 10:02:19;;;;;;;30.90;21.80;;;;;;;;;;5054430;28;20422;-68
2021/04/19 10:04:46;;;;;;;30.67;22.30;;;;;;;;;;5054223;28;20453;-68
2021/04/19 10:07:16;;;;;;;26.77;21.63;;;;;;;;;;5054231;28;20441;-67
2021/04/19 10:09:44;;;;;;;24.40;20.10;;;;;;;;;;5054080;28;20452;-67
2021/04/19 10:12:14;;;;;;;25.57;20.00;;;;;;;;;;5054186;28;20464;-67
2021/04/19 10:14:42;;;;;;;29.50;19.87;;;;;;;;;;5053683;28;20482;-68
2021/04/19 10:17:15;;;;;;;23.47;19.80;;;;;;;;;;5053935;28;20494;-67
2021/04/19 10:19:42;;;;;;;24.80;20.07;;;;;;;;;;5053824;28;20448;-67
2021/04/19 10:22:09;;;;;;;24.83;21.47;;;;;;;;;;5053869;28;20540;-67
2021/04/19 10:24:38;;;;;;;23.43;19.13;;;;;;;;;;5053739;28;20524;-67
2021/04/19 10:27:05;;;;;;;25.17;18.87;;;;;;;;;;5053688;28;20441;-67
2021/04/19 10:29:33;;;;;;;25.53;19.80;;;;;;;;;;5053158;28;20524;-67
2021/04/19 10:32:01;;;;;;;29.17;21.60;;;;;;;;;;5053238;28;20484;-67
2021/04/19 10:34:29;;;;;;;22.13;16.93;;;;;;;;;;5053539;28;20477;-67
2021/04/19 10:36:57;;;;;;;22.67;16.93;;;;;;;;;;5053577;28;20498;-66
2021/04/19 10:39:24;;;;;;;20.77;16.43;;;;;;;;;;5053541;28;20441;-68
2021/04/19 10:41:52;;;;;;;22.03;17.23;;;;;;;;;;5053053;28;20976;-67
2021/04/19 10:44:25;;;;;;;23.30;16.83;;;;;;;;;;5053106;28;20450;-67
2021/04/19 10:46:52;;;;;;;20.17;15.57;;;;;;;;;;5053526;28;20785;-68
2021/04/19 10:49:23;;;;;;;21.30;16.30;;;;;;;;;;5053320;28;20461;-68
2021/04/19 10:51:53;;;;;;;18.87;15.53;;;;;;;;;;5053472;28;20854;-67
2021/04/19 10:54:20;;;;;;;17.80;14.33;;;;;;;;;;5053420;28;20476;-68
2021/04/19 10:56:47;;;;;;;16.97;12.77;;;;;;;;;;5053537;28;20572;-67
2021/04/19 10:59:14;;;;;;;16.40;13.90;;;;;;;;;;5053350;28;20527;-67
2021/04/19 11:01:42;;;;;;;22.50;15.13;;;;;;;;;;5054091;28;20469;-67
2021/04/19 11:04:10;;;;;;;17.80;15.80;;;;;;;;;;5053550;28;20524;-67
2021/04/19 11:06:38;;;;;;;18.70;15.07;;;;;;;;;;5053469;28;20476;-67
2021/04/19 11:09:05;;;;;;;18.23;16.20;;;;;;;;;;5052919;28;20445;-67
2021/04/19 11:11:38;;;;;;;23.00;16.10;;;;;;;;;;5053573;28;20543;-67
2021/04/19 11:14:09;;;;;;;20.03;16.23;;;;;;;;;;5053734;28;20469;-67
2021/04/19 11:16:37;;;;;;;19.27;17.23;;;;;;;;;;5052838;28;20554;-67
2021/04/19 11:19:04;;;;;;;18.60;14.37;;;;;;;;;;5053264;28;20484;-68
2021/04/19 11:21:32;;;;;;;24.37;15.70;;;;;;;;;;5053113;28;20620;-67
2021/04/19 11:24:06;;;;;;;22.20;16.27;;;;;;;;;;5053655;28;20529;-67
2021/04/19 11:26:33;;;;;;;21.53;15.40;;;;;;;;;;5053057;28;20532;-67
2021/04/19 11:29:00;;;;;;;18.23;14.23;;;;;;;;;;5052752;28;20452;-67
2021/04/19 11:31:27;;;;;;;24.90;13.90;;;;;;;;;;5053096;28;20998;-67
2021/04/19 11:34:08;;;;;;;18.40;14.87;;;;;;;;;;5052564;28;21136;-67
2021/04/19 11:36:40;;;;;;;19.27;14.03;;;;;;;;;;5052584;28;20448;-67
2021/04/19 11:39:16;;;;;;;19.33;15.97;;;;;;;;;;5054235;28;20520;-67
2021/04/19 11:41:44;;;;;;;17.73;14.33;;;;;;;;;;5056692;28;20449;-67
2021/04/19 11:44:10;;;;;;;16.87;14.43;;;;;;;;;;5056801;28;20446;-68
2021/04/19 11:46:41;;;;;;;22.30;15.33;;;;;;;;;;5056759;28;20595;-68
2021/04/19 11:49:09;;;;;;;17.10;14.90;;;;;;;;;;5056243;28;20483;-68
2021/04/19 11:51:36;;;;;;;21.37;16.07;;;;;;;;;;5056395;28;20441;-68
2021/04/19 11:54:03;;;;;;;20.00;16.10;;;;;;;;;;5056253;28;20480;-68
2021/04/19 11:56:31;;;;;;;25.00;16.87;;;;;;;;;;5057158;28;20446;-67
2021/04/19 11:58:57;;;;;;;22.70;17.43;;;;;;;;;;5056946;28;20468;-68
2021/04/19 12:01:29;;;;;;;20.10;14.97;;;;;;;;;;5056107;28;20441;-67
2021/04/19 12:03:56;;;;;;;21.27;15.27;;;;;;;;;;5057036;28;20518;-67
2021/04/19 12:06:26;;;;;;;21.50;16.13;;;;;;;;;;5056886;28;20441;-69
2021/04/19 12:08:53;;;;;;;20.07;14.67;;;;;;;;;;5056003;28;20481;-68
2021/04/19 12:11:22;;;;;;;21.53;13.80;;;;;;;;;;5056089;28;20498;-68
2021/04/19 12:13:49;;;;;;;18.60;15.10;;;;;;;;;;5056161;28;20523;-66
2021/04/19 12:16:16;;;;;;;17.13;13.83;;;;;;;;;;5056142;28;20437;-67
2021/04/19 12:18:43;;;;;;;20.10;13.97;;;;;;;;;;5055795;28;20958;-68
2021/04/19 12:21:10;;;;;;;20.23;15.00;;;;;;;;;;5056842;28;20521;-67
2021/04/19 12:23:37;;;;;;;28.00;16.80;;;;;;;;;;5055764;28;20603;-68
2021/04/19 12:26:04;;;;;;;18.27;13.87;;;;;;;;;;5056018;28;20446;-68
2021/04/19 12:28:31;;;;;;;17.57;14.23;;;;;;;;;;5055609;28;20532;-68
2021/04/19 12:31:00;;;;;;;17.23;14.10;;;;;;;;;;5056033;28;20927;-68
2021/04/19 12:33:27;;;;;;;15.70;12.90;;;;;;;;;;5056342;28;20441;-67
2021/04/19 12:35:54;;;;;;;21.93;15.43;;;;;;;;;;5056587;28;20568;-68
2021/04/19 12:38:20;;;;;;;19.67;14.50;;;;;;;;;;5055915;28;20919;-67
2021/04/19 12:40:48;;;;;;;18.10;15.30;;;;;;;;;;5056501;28;20524;-68
2021/04/19 12:43:15;;;;;;;17.70;15.80;;;;;;;;;;5055180;28;20479;-68
2021/04/19 12:45:44;;;;;;;19.83;15.90;;;;;;;;;;5055661;28;20550;-69
2021/04/19 12:48:12;;;;;;;19.50;15.57;;;;;;;;;;5055065;28;20499;-67
2021/04/19 12:50:39;;;;;;;18.70;16.70;;;;;;;;;;5055285;28;20453;-67
2021/04/19 12:53:06;;;;;;;19.97;15.60;;;;;;;;;;5055582;28;20452;-69
2021/04/19 12:55:33;;;;;;;18.73;15.07;;;;;;;;;;5055383;28;20473;-68
2021/04/19 12:58:01;;;;;;;17.20;14.90;;;;;;;;;;5055635;28;20457;-68
2021/04/19 13:00:28;;;;;;;25.90;13.90;;;;;;;;;;5055406;28;21002;-68
2021/04/19 13:02:55;;;;;;;23.13;13.00;;;;;;;;;;5055394;28;20440;-68
2021/04/19 13:05:22;;;;;;;15.33;12.70;;;;;;;;;;5054617;28;20506;-68
2021/04/19 13:07:49;;;;;;;16.47;12.57;;;;;;;;;;5065974;28;20537;-68
2021/04/19 13:10:16;;;;;;;15.07;12.83;;;;;;;;;;5054556;28;20529;-68
2021/04/19 13:12:43;;;;;;;15.37;12.73;;;;;;;;;;5072950;28;20444;-68
2021/04/19 13:15:12;;;;;;;14.13;12.57;;;;;;;;;;5074418;28;20475;-68
2021/04/19 13:17:39;;;;;;;15.70;12.70;;;;;;;;;;5074380;28;20996;-68
2021/04/19 13:20:06;;;;;;;14.43;12.90;;;;;;;;;;5074682;28;20535;-68
2021/04/19 13:22:33;;;;;;;17.00;13.27;;;;;;;;;;5073997;28;20878;-68
2021/04/19 13:25:00;;;;;;;14.83;12.67;;;;;;;;;;5074587;28;20436;-68
2021/04/19 13:27:27;;;;;;;16.60;14.20;;;;;;;;;;5074514;28;20518;-68
2021/04/19 13:29:53;;;;;;;20.60;14.20;;;;;;;;;;5074690;28;20622;-69
2021/04/19 13:32:21;;;;;;;19.43;15.23;;;;;;;;;;5074152;28;20535;-68
2021/04/19 13:34:48;;;;;;;16.13;14.40;;;;;;;;;;5074264;28;20484;-69
2021/04/19 13:37:15;;;;;;;20.37;14.57;;;;;;;;;;5056580;28;20524;-68
2021/04/19 13:39:41;;;;;;;21.30;15.87;;;;;;;;;;5054050;28;20448;-68
2021/04/19 13:42:08;;;;;;;24.03;15.77;;;;;;;;;;5055052;28;20449;-68
2021/04/19 13:44:35;;;;;;;17.63;15.23;;;;;;;;;;5055093;28;20867;-69
2021/04/19 13:47:02;;;;;;;22.70;15.90;;;;;;;;;;5054125;28;20499;-68
2021/04/19 13:49:29;;;;;;;16.70;14.20;;;;;;;;;;5054014;28;21040;-68
2021/04/19 13:51:56;;;;;;;18.47;15.07;;;;;;;;;;5054162;28;20449;-68
2021/04/19 13:54:24;;;;;;;20.57;15.53;;;;;;;;;;5053916;28;20621;-67
2021/04/19 13:56:51;;;;;;;18.63;15.30;;;;;;;;;;5053620;28;20966;-67
2021/04/19 13:59:18;;;;;;;26.13;15.30;;;;;;;;;;5053468;28;20455;-67
2021/04/19 14:01:44;;;;;;;18.67;15.77;;;;;;;;;;5054031;28;20437;-67
2021/04/19 14:04:11;;;;;;;16.30;13.83;;;;;;;;;;5052807;28;21021;-68
2021/04/19 14:06:39;;;;;;;14.00;12.17;;;;;;;;;;5053942;28;20906;-68
2021/04/19 14:09:05;;;;;;;15.80;13.50;;;;;;;;;;5053783;28;20947;-68
2021/04/19 14:11:32;;;;;;;15.53;13.57;;;;;;;;;;5054004;28;20503;-67
2021/04/19 14:13:59;;;;;;;14.97;11.87;;;;;;;;;;5053933;28;20523;-68
2021/04/19 14:16:26;;;;;;;19.87;13.57;;;;;;;;;;5054245;28;20429;-67
2021/04/19 14:18:53;;;;;;;13.87;12.13;;;;;;;;;;5053457;28;20446;-68
2021/04/19 14:21:19;;;;;;;16.60;13.37;;;;;;;;;;5053409;28;20446;-68